createdAt,value
2023-04-05T00:01:51.859Z,25.50
2023-04-05T00:04:22.708Z,25.60
2023-04-05T00:06:54.167Z,25.60
2023-04-05T00:09:23.825Z,25.70
2023-04-05T00:11:53.395Z,25.80
2023-04-05T00:14:23.534Z,25.90
2023-04-05T00:16:53.115Z,26.00
2023-04-05T00:19:24.823Z,26.10
2023-04-05T00:21:56.155Z,26.20
2023-04-05T00:24:26.006Z,26.30
2023-04-05T00:26:55.511Z,26.40
2023-04-05T00:29:25.108Z,26.50
2023-04-05T00:31:54.683Z,26.60
2023-04-05T00:34:24.942Z,26.70
2023-04-05T00:36:54.539Z,26.80
2023-04-05T00:39:23.985Z,26.90
2023-04-05T00:41:53.612Z,27.00
2023-04-05T00:44:23.214Z,27.20
2023-04-05T00:46:53.190Z,27.30
2023-04-05T00:49:22.715Z,27.40
2023-04-05T00:51:52.732Z,27.50
2023-04-05T00:54:22.401Z,27.70
2023-04-05T00:56:54.659Z,27.90
2023-04-05T00:59:24.194Z,28.00
2023-04-05T01:02:15.098Z,28.10
2023-04-05T01:04:51.703Z,28.30
2023-04-05T01:07:56.026Z,28.50
2023-04-05T01:10:37.203Z,28.70
2023-04-05T01:13:07.905Z,28.80
2023-04-05T01:15:38.224Z,28.90
2023-04-05T01:18:08.028Z,29.00
2023-04-05T01:20:42.555Z,29.20
2023-04-05T01:23:54.975Z,29.30
2023-04-05T01:26:58.952Z,29.40
2023-04-05T01:29:50.605Z,29.60
2023-04-05T01:32:28.826Z,29.90
2023-04-05T01:35:19.382Z,30.10
2023-04-05T01:37:55.762Z,30.30
2023-04-05T01:40:25.963Z,30.60
2023-04-05T01:42:55.414Z,30.80
2023-04-05T01:45:25.086Z,31.00
2023-04-05T01:47:54.606Z,31.10
2023-04-05T01:50:24.156Z,31.30
2023-04-05T01:52:54.168Z,31.50
2023-04-05T01:55:23.637Z,31.60
2023-04-05T01:57:54.912Z,31.70
2023-04-05T02:00:24.857Z,31.90
2023-04-05T02:02:55.055Z,32.00
2023-04-05T02:05:24.790Z,32.20
2023-04-05T02:07:55.102Z,32.40
2023-04-05T02:10:26.575Z,32.50
2023-04-05T02:12:56.146Z,32.60
2023-04-05T02:15:25.656Z,32.70
2023-04-05T02:17:55.652Z,32.70
2023-04-05T02:20:27.742Z,32.60
2023-04-05T02:22:58.568Z,32.60
2023-04-05T02:25:28.402Z,32.60
2023-04-05T02:27:58.571Z,32.60
2023-04-05T02:30:30.925Z,32.60
2023-04-05T02:33:00.709Z,32.70
2023-04-05T02:35:30.595Z,32.80
2023-04-05T02:38:00.405Z,33.00
2023-04-05T02:40:30.161Z,33.00
2023-04-05T02:43:00.008Z,33.10
2023-04-05T02:45:30.825Z,33.20
2023-04-05T02:48:02.617Z,33.30
2023-04-05T02:50:32.776Z,33.50
2023-04-05T02:53:04.174Z,33.70
2023-04-05T02:55:35.781Z,33.90
2023-04-05T02:58:05.458Z,34.10
2023-04-05T03:00:35.687Z,34.20
2023-04-05T03:03:05.469Z,34.40
2023-04-05T03:05:35.037Z,34.40
2023-04-05T03:08:04.575Z,34.50
2023-04-05T03:10:37.902Z,34.60
2023-04-05T03:13:07.583Z,34.70
2023-04-05T03:15:37.902Z,34.70
2023-04-05T03:18:07.813Z,34.80
2023-04-05T03:20:47.558Z,35.00
2023-04-05T03:23:17.109Z,35.10
2023-04-05T03:25:46.586Z,35.20
2023-04-05T03:28:16.988Z,35.40
2023-04-05T03:30:46.585Z,35.60
2023-04-05T03:33:16.023Z,35.80
2023-04-05T03:35:48.405Z,35.90
2023-04-05T03:38:22.070Z,36.10
2023-04-05T03:40:52.320Z,36.30
2023-04-05T03:43:21.861Z,36.50
2023-04-05T03:45:51.435Z,36.70
2023-04-05T03:48:21.993Z,36.90
2023-04-05T03:50:51.535Z,37.00
2023-04-05T03:53:21.228Z,37.30
2023-04-05T03:55:51.931Z,37.50
2023-04-05T03:58:23.551Z,37.70
2023-04-05T04:00:55.038Z,37.90
2023-04-05T04:03:24.485Z,38.00
2023-04-05T04:05:54.200Z,38.10
2023-04-05T04:08:24.027Z,38.10
2023-04-05T04:10:53.570Z,38.10
2023-04-05T04:13:23.077Z,38.00
2023-04-05T04:15:52.623Z,38.00
2023-04-05T04:18:22.751Z,38.00
2023-04-05T04:20:54.848Z,38.20
2023-04-05T04:23:24.487Z,38.30
2023-04-05T04:25:56.270Z,38.50
2023-04-05T04:28:26.751Z,38.70
2023-04-05T04:33:38.225Z,39.00
2023-04-05T04:36:15.333Z,39.10
2023-04-05T04:38:45.170Z,39.10
2023-04-05T04:41:15.875Z,39.10
2023-04-05T04:43:45.611Z,39.10
2023-04-05T04:46:16.807Z,39.20
2023-04-05T04:48:50.078Z,39.30
2023-04-05T04:51:20.171Z,39.30
2023-04-05T04:53:49.660Z,39.40
2023-04-05T04:56:19.217Z,39.50
2023-04-05T04:58:48.681Z,39.60
2023-04-05T05:01:18.245Z,39.80
2023-04-05T05:03:47.829Z,40.00
2023-04-05T05:06:26.383Z,40.20
2023-04-05T05:08:56.332Z,40.30
2023-04-05T05:11:26.037Z,40.40
2023-04-05T05:13:56.726Z,40.50
2023-04-05T05:16:26.514Z,40.60
2023-04-05T05:18:56.834Z,40.70
2023-04-05T05:21:26.294Z,40.80
2023-04-05T05:23:55.784Z,40.90
2023-04-05T05:26:25.296Z,40.90
2023-04-05T05:28:55.676Z,40.80
2023-04-05T05:31:25.473Z,40.80
2023-04-05T05:33:55.024Z,40.80
2023-04-05T05:36:25.503Z,40.80
2023-04-05T05:38:55.669Z,40.90
2023-04-05T05:41:25.107Z,40.90
2023-04-05T05:43:55.335Z,41.00
2023-04-05T05:46:25.035Z,41.00
2023-04-05T05:48:54.594Z,41.10
2023-04-05T05:51:24.061Z,41.10
2023-04-05T05:53:54.609Z,41.10
2023-04-05T05:56:25.096Z,41.00
2023-04-05T05:58:54.755Z,41.10
2023-04-05T06:01:29.760Z,41.00
2023-04-05T06:03:59.550Z,41.10
2023-04-05T06:06:31.842Z,41.10
2023-04-05T06:09:01.386Z,41.00
2023-04-05T06:11:31.149Z,41.10
2023-04-05T06:14:01.130Z,41.00
2023-04-05T06:16:32.447Z,41.20
2023-04-05T06:19:02.027Z,41.20
2023-04-05T06:21:31.468Z,41.30
2023-04-05T06:24:01.332Z,41.40
2023-04-05T06:26:31.746Z,41.40
2023-04-05T06:29:01.259Z,41.50
2023-04-05T06:31:36.017Z,41.50
2023-04-05T06:34:05.802Z,41.60
2023-04-05T06:36:35.789Z,41.70
2023-04-05T06:39:05.318Z,41.80
2023-04-05T06:41:35.015Z,41.80
2023-04-05T06:44:04.586Z,41.80
2023-04-05T06:46:34.471Z,41.80
2023-04-05T06:49:04.268Z,41.80
2023-04-05T06:51:34.181Z,41.80
2023-04-05T06:54:03.666Z,41.80
2023-04-05T06:56:33.638Z,41.70
2023-04-05T06:59:06.321Z,41.70
2023-04-05T07:01:35.983Z,41.70
2023-04-05T07:04:05.498Z,41.60
2023-04-05T07:06:36.903Z,41.60
2023-04-05T07:09:06.943Z,41.60
2023-04-05T07:11:36.546Z,41.70
2023-04-05T07:14:06.076Z,41.60
2023-04-05T07:16:36.053Z,41.60
2023-04-05T07:19:07.855Z,41.50
2023-04-05T07:21:37.445Z,41.50
2023-04-05T07:24:08.089Z,41.40
2023-04-05T07:26:38.947Z,41.40
2023-04-05T07:29:09.952Z,41.30
2023-04-05T07:31:41.199Z,41.20
2023-04-05T07:34:10.738Z,41.20
2023-04-05T07:36:40.169Z,41.10
2023-04-05T07:39:09.698Z,41.10
2023-04-05T07:41:40.636Z,40.90
2023-04-05T07:44:13.093Z,40.90
2023-04-05T07:46:48.945Z,40.90
2023-04-05T07:49:21.733Z,40.90
2023-04-05T07:51:52.680Z,40.90
2023-04-05T07:54:22.464Z,40.90
2023-04-05T07:56:53.888Z,41.00
2023-04-05T07:59:23.730Z,40.90
2023-04-05T08:01:57.116Z,40.90
2023-04-05T08:04:34.266Z,40.90
2023-04-05T08:07:03.747Z,40.90
2023-04-05T08:09:33.303Z,40.80
2023-04-05T08:12:05.307Z,40.80
2023-04-05T08:14:34.814Z,40.70
2023-04-05T08:17:04.379Z,40.70
2023-04-05T08:19:33.838Z,40.70
2023-04-05T08:22:03.440Z,40.60
2023-04-05T08:24:33.093Z,40.60
2023-04-05T08:27:03.640Z,40.50
2023-04-05T08:29:33.165Z,40.50
2023-04-05T08:32:03.337Z,40.50
2023-04-05T08:34:32.957Z,40.40
2023-04-05T08:37:02.905Z,40.50
2023-04-05T08:39:32.676Z,40.50
2023-04-05T08:42:21.429Z,40.50
2023-04-05T08:44:54.506Z,40.40
2023-04-05T08:47:25.809Z,40.40
2023-04-05T08:49:55.616Z,40.30
2023-04-05T08:52:25.654Z,40.30
2023-04-05T08:54:58.270Z,40.30
2023-04-05T08:57:30.534Z,40.20
2023-04-05T09:00:03.248Z,40.20
2023-04-05T09:02:34.677Z,40.10
2023-04-05T09:05:08.639Z,40.10
2023-04-05T09:07:38.417Z,40.00
2023-04-05T09:10:09.482Z,40.00
2023-04-05T09:12:40.159Z,39.90
2023-04-05T09:15:10.371Z,39.80
2023-04-05T09:17:43.973Z,39.80
2023-04-05T09:20:13.460Z,39.70
2023-04-05T09:22:49.579Z,39.70
2023-04-05T09:25:34.698Z,39.60
2023-04-05T09:28:05.446Z,39.60
2023-04-05T09:30:37.392Z,39.60
2023-04-05T09:33:12.053Z,39.50
2023-04-05T09:35:41.630Z,39.40
2023-04-05T09:38:11.147Z,39.40
2023-04-05T09:40:47.889Z,39.30
2023-04-05T09:43:44.451Z,39.30
2023-04-05T09:46:35.722Z,39.30
2023-04-05T09:49:05.609Z,39.20
2023-04-05T09:51:40.148Z,39.10
2023-04-05T09:54:12.387Z,39.20
2023-04-05T09:57:01.476Z,39.10
2023-04-05T09:59:32.067Z,39.10
2023-04-05T10:02:01.842Z,39.00
2023-04-05T10:04:44.198Z,39.00
2023-04-05T10:07:16.184Z,38.90
2023-04-05T10:09:47.962Z,38.90
2023-04-05T10:12:31.225Z,38.80
2023-04-05T10:15:00.482Z,38.70
2023-04-05T10:17:53.182Z,38.70
2023-04-05T10:20:25.227Z,38.60
2023-04-05T10:23:07.510Z,38.50
2023-04-05T10:25:55.208Z,38.50
2023-04-05T10:28:35.947Z,38.40
2023-04-05T10:31:24.021Z,38.30
2023-04-05T10:34:13.900Z,38.20
2023-04-05T10:37:02.267Z,38.10
2023-04-05T10:39:42.672Z,38.00
2023-04-05T10:42:28.047Z,38.00
2023-04-05T10:45:06.527Z,37.80
2023-04-05T10:47:43.018Z,37.80
2023-04-05T10:50:19.609Z,37.70
2023-04-05T10:52:53.177Z,37.60
2023-04-05T10:55:25.779Z,37.50
2023-04-05T10:57:57.092Z,37.50
2023-04-05T11:00:28.688Z,37.40
2023-04-05T11:02:58.854Z,37.30
2023-04-05T11:05:33.155Z,37.20
2023-04-05T11:08:07.045Z,37.10
2023-04-05T11:10:41.892Z,37.00
2023-04-05T11:13:12.411Z,36.90
2023-04-05T11:15:43.147Z,36.80
2023-04-05T11:18:30.634Z,36.70
2023-04-05T11:21:10.520Z,36.60
2023-04-05T11:24:05.333Z,36.50
2023-04-05T11:26:58.306Z,36.40
2023-04-05T11:29:51.222Z,36.30
2023-04-05T11:32:20.894Z,36.20
2023-04-05T11:35:07.540Z,36.00
2023-04-05T11:38:12.348Z,35.90
2023-04-05T11:40:44.970Z,35.80
2023-04-05T11:43:17.900Z,35.70
2023-04-05T11:45:49.514Z,35.70
2023-04-05T11:48:20.479Z,35.50
2023-04-05T11:50:53.201Z,35.40
2023-04-05T11:53:23.081Z,35.40
2023-04-05T11:55:54.062Z,35.30
2023-04-05T11:58:27.472Z,35.20
2023-04-05T12:01:04.343Z,35.10
2023-04-05T12:03:34.299Z,35.10
2023-04-05T12:06:06.415Z,35.00
2023-04-05T12:08:52.897Z,34.90
2023-04-05T12:11:29.552Z,34.80
2023-04-05T12:14:04.443Z,34.80
2023-04-05T12:16:33.908Z,34.70
2023-04-05T12:19:03.700Z,34.60
2023-04-05T12:21:34.218Z,34.50
2023-04-05T12:24:04.425Z,34.50
2023-04-05T12:26:36.310Z,34.40
2023-04-05T12:29:06.953Z,34.30
2023-04-05T12:31:49.014Z,34.30
2023-04-05T12:34:27.671Z,34.10
2023-04-05T12:36:59.389Z,34.10
2023-04-05T12:39:33.624Z,34.00
2023-04-05T12:42:03.961Z,33.90
2023-04-05T12:44:34.030Z,33.90
2023-04-05T12:47:04.739Z,33.80
2023-04-05T12:49:40.434Z,33.80
2023-04-05T12:52:10.486Z,33.60
2023-04-05T12:54:42.306Z,33.60
2023-04-05T12:57:14.597Z,33.50
2023-04-05T12:59:44.074Z,33.50
2023-04-05T13:02:14.312Z,33.40
2023-04-05T13:04:43.823Z,33.40
2023-04-05T13:07:13.307Z,33.30
2023-04-05T13:09:42.852Z,33.20
2023-04-05T13:12:12.422Z,33.20
2023-04-05T13:14:42.031Z,33.20
2023-04-05T13:17:11.524Z,33.10
2023-04-05T13:19:41.017Z,33.00
2023-04-05T13:22:10.553Z,33.00
2023-04-05T13:24:40.887Z,32.90
2023-04-05T13:27:10.385Z,32.80
2023-04-05T13:29:40.003Z,32.80
2023-04-05T13:32:09.838Z,32.60
2023-04-05T13:34:39.744Z,32.60
2023-04-05T13:37:09.447Z,32.60
2023-04-05T13:39:39.147Z,32.60
2023-04-05T13:42:08.853Z,32.50
2023-04-05T13:44:40.011Z,32.50
2023-04-05T13:47:10.096Z,32.50
2023-04-05T13:49:39.069Z,32.40
2023-04-05T13:52:08.133Z,32.40
2023-04-05T13:54:37.254Z,32.30
2023-04-05T13:57:06.803Z,32.30
2023-04-05T13:59:35.923Z,32.30
2023-04-05T14:02:05.106Z,32.30
2023-04-05T14:04:34.203Z,32.20
2023-04-05T14:07:03.243Z,32.20
2023-04-05T14:09:32.248Z,32.10
2023-04-05T14:12:05.668Z,32.10
2023-04-05T14:14:35.120Z,32.00
2023-04-05T14:17:04.324Z,32.00
2023-04-05T14:19:33.297Z,31.90
2023-04-05T14:22:03.322Z,31.80
2023-04-05T14:24:32.691Z,31.80
2023-04-05T14:27:02.379Z,31.70
2023-04-05T14:29:31.465Z,31.60
2023-04-05T14:32:00.528Z,31.60
2023-04-05T14:34:29.580Z,31.50
2023-04-05T14:36:59.550Z,31.50
2023-04-05T14:39:28.495Z,31.40
2023-04-05T14:41:57.928Z,31.40
2023-04-05T14:44:28.774Z,31.30
2023-04-05T14:46:57.823Z,31.30
2023-04-05T14:49:27.113Z,31.20
2023-04-05T14:51:56.017Z,31.20
2023-04-05T14:54:25.200Z,31.20
2023-04-05T14:56:54.162Z,31.20
2023-04-05T14:59:23.279Z,31.10
2023-04-05T15:01:52.372Z,31.10
2023-04-05T15:04:21.501Z,31.10
2023-04-05T15:06:50.848Z,31.10
2023-04-05T15:09:19.805Z,31.00
2023-04-05T15:11:48.828Z,31.00
2023-04-05T15:14:29.035Z,31.00
2023-04-05T15:17:00.558Z,31.00
2023-04-05T15:19:31.109Z,30.90
2023-04-05T15:22:00.129Z,30.80
2023-04-05T15:24:29.151Z,30.80
2023-04-05T15:27:03.216Z,30.80
2023-04-05T15:29:32.689Z,30.80
2023-04-05T15:32:05.246Z,30.80
2023-04-05T15:34:34.308Z,30.80
2023-04-05T15:37:03.267Z,30.80
2023-04-05T15:39:32.246Z,30.80
2023-04-05T15:42:02.844Z,30.80
2023-04-05T15:44:31.945Z,30.80
2023-04-05T15:47:00.963Z,30.80
2023-04-05T15:49:29.917Z,30.70
2023-04-05T15:51:59.046Z,30.70
2023-04-05T15:54:27.976Z,30.70
2023-04-05T15:56:58.150Z,30.70
2023-04-05T15:59:27.305Z,30.70
2023-04-05T16:01:56.565Z,30.70
2023-04-05T16:04:26.041Z,30.60
2023-04-05T16:06:55.962Z,30.60
2023-04-05T16:09:24.994Z,30.60
2023-04-05T16:11:54.246Z,30.60
2023-04-05T16:14:23.440Z,30.60
2023-04-05T16:16:54.411Z,30.50
2023-04-05T16:19:24.545Z,30.50
2023-04-05T16:21:54.044Z,30.50
2023-04-05T16:24:23.138Z,30.50
2023-04-05T16:26:52.189Z,30.60
2023-04-05T16:29:21.416Z,30.60
2023-04-05T16:31:50.638Z,30.60
2023-04-05T16:34:19.821Z,30.60
2023-04-05T16:36:48.826Z,30.60
2023-04-05T16:39:17.853Z,30.50
2023-04-05T16:41:46.835Z,30.50
2023-04-05T16:44:15.964Z,30.50
2023-04-05T16:46:47.207Z,30.40
2023-04-05T16:49:16.996Z,30.40
2023-04-05T16:51:45.924Z,30.40
2023-04-05T16:54:14.877Z,30.40
2023-04-05T16:56:44.227Z,30.30
2023-04-05T16:59:13.295Z,30.30
2023-04-05T17:01:42.645Z,30.30
2023-04-05T17:04:11.631Z,30.20
2023-04-05T17:06:40.609Z,30.20
2023-04-05T17:09:09.722Z,30.20
2023-04-05T17:11:38.752Z,30.20
2023-04-05T17:14:08.921Z,30.20
2023-04-05T17:16:38.506Z,30.10
2023-04-05T17:19:07.574Z,30.00
2023-04-05T17:21:36.749Z,29.90
2023-04-05T17:24:05.813Z,29.90
2023-04-05T17:26:34.852Z,29.90
2023-04-05T17:29:04.235Z,29.90
2023-04-05T17:31:34.558Z,29.80
2023-04-05T17:34:03.667Z,29.80
2023-04-05T17:36:33.346Z,29.70
2023-04-05T17:39:02.541Z,29.70
2023-04-05T17:41:32.013Z,29.60
2023-04-05T17:44:00.925Z,29.60
2023-04-05T17:46:40.104Z,29.60
2023-04-05T17:49:10.475Z,29.60
2023-04-05T17:51:39.474Z,29.50
2023-04-05T17:54:08.852Z,29.50
2023-04-05T17:56:37.924Z,29.50
2023-04-05T17:59:08.052Z,29.40
2023-04-05T18:01:37.937Z,29.40
2023-04-05T18:04:08.248Z,29.30
2023-04-05T18:06:39.213Z,29.40
2023-04-05T18:09:10.211Z,29.30
2023-04-05T18:11:39.170Z,29.30
2023-04-05T18:14:08.418Z,29.30
2023-04-05T18:16:37.498Z,29.20
2023-04-05T18:19:06.877Z,29.20
2023-04-05T18:21:35.947Z,29.20
2023-04-05T18:24:05.008Z,29.10
2023-04-05T18:26:36.849Z,29.10
2023-04-05T18:29:06.446Z,29.00
2023-04-05T18:31:35.745Z,29.00
2023-04-05T18:34:07.775Z,28.90
2023-04-05T18:36:40.750Z,28.90
2023-04-05T18:39:10.011Z,28.80
2023-04-05T18:41:38.933Z,28.80
2023-04-05T18:44:07.910Z,28.80
2023-04-05T18:46:37.020Z,28.70
2023-04-05T18:49:06.494Z,28.70
2023-04-05T18:51:35.707Z,28.60
2023-04-05T18:54:05.111Z,28.70
2023-04-05T18:56:34.176Z,28.60
2023-04-05T18:59:03.151Z,28.60
2023-04-05T19:01:32.659Z,28.60
2023-04-05T19:04:01.823Z,28.50
2023-04-05T19:06:31.171Z,28.50
2023-04-05T19:09:00.181Z,28.50
2023-04-05T19:11:29.364Z,28.40
2023-04-05T19:14:00.604Z,28.40
2023-04-05T19:16:29.852Z,28.40
2023-04-05T19:18:58.917Z,28.30
2023-04-05T19:21:27.839Z,28.30
2023-04-05T19:23:57.317Z,28.30
2023-04-05T19:26:26.641Z,28.20
2023-04-05T19:28:56.443Z,28.20
2023-04-05T19:31:25.605Z,28.20
2023-04-05T19:33:54.608Z,28.20
2023-04-05T19:36:23.676Z,28.10
2023-04-05T19:38:53.331Z,28.10
2023-04-05T19:41:22.479Z,28.00
2023-04-05T19:43:51.626Z,28.00
2023-04-05T19:46:20.967Z,28.00
2023-04-05T19:48:50.249Z,27.90
2023-04-05T19:51:20.746Z,27.90
2023-04-05T19:53:55.174Z,27.90
2023-04-05T19:56:27.648Z,27.90
2023-04-05T19:59:10.548Z,27.90
2023-04-05T20:01:43.224Z,27.90
2023-04-05T20:04:20.948Z,27.90
2023-04-05T20:06:56.753Z,27.80
2023-04-05T20:09:32.927Z,27.80
2023-04-05T20:12:04.823Z,27.80
2023-04-05T20:14:36.648Z,27.80
2023-04-05T20:17:06.570Z,27.80
2023-04-05T20:19:35.707Z,27.80
2023-04-05T20:22:08.543Z,27.80
2023-04-05T20:24:43.553Z,27.80
2023-04-05T20:27:16.206Z,27.70
2023-04-05T20:29:45.210Z,27.70
2023-04-05T20:32:15.262Z,27.70
2023-04-05T20:34:45.342Z,27.70
2023-04-05T20:37:14.889Z,27.60
2023-04-05T20:39:43.916Z,27.60
2023-04-05T20:42:13.974Z,27.50
2023-04-05T20:44:43.001Z,27.50
2023-04-05T20:47:11.977Z,27.50
2023-04-05T20:49:40.907Z,27.50
2023-04-05T20:52:12.137Z,27.50
2023-04-05T20:54:41.077Z,27.40
2023-04-05T20:57:10.748Z,27.50
2023-04-05T20:59:39.734Z,27.40
2023-04-05T21:02:08.877Z,27.40
2023-04-05T21:04:38.178Z,27.30
2023-04-05T21:07:07.246Z,27.30
2023-04-05T21:09:36.277Z,27.30
2023-04-05T21:12:05.510Z,27.30
2023-04-05T21:14:34.472Z,27.20
2023-04-05T21:17:04.533Z,27.20
2023-04-05T21:19:33.507Z,27.20
2023-04-05T21:22:02.632Z,27.20
2023-04-05T21:24:31.527Z,27.10
2023-04-05T21:27:00.431Z,27.10
2023-04-05T21:29:29.396Z,27.00
2023-04-05T21:31:58.358Z,27.00
2023-04-05T21:34:27.630Z,27.00
2023-04-05T21:36:56.528Z,27.00
2023-04-05T21:39:25.484Z,27.00
2023-04-05T21:41:54.417Z,27.00
2023-04-05T21:44:23.349Z,26.90
2023-04-05T21:46:52.536Z,26.90
2023-04-05T21:49:21.628Z,26.90
2023-04-05T21:51:50.750Z,26.90
2023-04-05T21:54:19.680Z,26.80
2023-04-05T21:56:48.578Z,26.80
2023-04-05T21:59:17.524Z,26.70
2023-04-05T22:01:46.807Z,26.70
2023-04-05T22:04:15.922Z,26.70
2023-04-05T22:06:44.827Z,26.70
2023-04-05T22:09:13.822Z,26.60
2023-04-05T22:11:43.256Z,26.50
2023-04-05T22:14:12.392Z,26.60
2023-04-05T22:16:41.458Z,26.50
2023-04-05T22:19:12.993Z,26.50
2023-04-05T22:21:42.882Z,26.40
2023-04-05T22:24:13.358Z,26.40
2023-04-05T22:26:42.736Z,26.40
2023-04-05T22:29:12.095Z,26.30
2023-04-05T22:31:42.098Z,26.30
2023-04-05T22:34:11.150Z,26.20
2023-04-05T22:36:40.117Z,26.20
2023-04-05T22:39:09.293Z,26.20
2023-04-05T22:41:38.426Z,26.20
2023-04-05T22:44:08.150Z,26.20
2023-04-05T22:46:38.683Z,26.20
2023-04-05T22:49:07.940Z,26.20
2023-04-05T22:51:37.093Z,26.20
2023-04-05T22:54:06.122Z,26.20
2023-04-05T22:56:35.067Z,26.10
2023-04-05T22:59:04.097Z,26.10
2023-04-05T23:01:33.139Z,26.10
2023-04-05T23:04:02.297Z,26.10
2023-04-05T23:06:32.395Z,26.00
2023-04-05T23:09:02.930Z,26.00
2023-04-05T23:11:31.905Z,26.00
2023-04-05T23:14:01.023Z,26.00
2023-04-05T23:16:30.335Z,26.00
2023-04-05T23:18:59.671Z,25.90
2023-04-05T23:21:28.730Z,25.90
2023-04-05T23:23:57.814Z,25.90
2023-04-05T23:26:28.538Z,25.90
2023-04-05T23:28:57.576Z,25.90
2023-04-05T23:31:27.001Z,25.90
2023-04-05T23:33:56.872Z,25.90
2023-04-05T23:36:25.906Z,25.90
2023-04-05T23:38:54.854Z,25.90
2023-04-05T23:41:23.813Z,26.00
2023-04-05T23:43:53.099Z,26.00
2023-04-05T23:46:23.191Z,26.00
2023-04-05T23:48:52.365Z,26.10
2023-04-05T23:51:21.430Z,26.10
2023-04-05T23:53:50.474Z,26.20
2023-04-05T23:56:19.421Z,26.20
2023-04-05T23:58:48.497Z,26.30
